sensor_id;sensor_type;location;lat;lon;timestamp;pressure;altitude;pressure_sealevel;temperature;humidity
63808;BME280;49961;43.970;22.868;2024-02-26T00:00:34;100933.63;;;11.25;100.00
63808;BME280;49961;43.970;22.868;2024-02-26T00:01:35;101005.94;;;11.73;100.00
63808;BME280;49961;43.970;22.868;2024-02-26T00:02:37;101011.22;;;11.68;100.00
63808;BME280;49961;43.970;22.868;2024-02-26T00:03:38;101001.41;;;11.63;100.00
63808;BME280;49961;43.970;22.868;2024-02-26T00:04:39;101004.97;;;11.64;100.00
63808;BME280;49961;43.970;22.868;2024-02-26T00:05:39;101012.41;;;11.67;100.00
63808;BME280;49961;43.970;22.868;2024-02-26T00:06:40;101008.00;;;11.69;100.00
63808;BME280;49961;43.970;22.868;2024-02-26T00:07:41;100989.16;;;11.61;100.00
63808;BME280;49961;43.970;22.868;2024-02-26T00:08:42;101002.91;;;11.68;100.00
63808;BME280;49961;43.970;22.868;2024-02-26T00:09:43;101006.09;;;11.66;100.00
63808;BME280;49961;43.970;22.868;2024-02-26T00:10:43;100995.00;;;11.66;100.00
63808;BME280;49961;43.970;22.868;2024-02-26T00:11:44;100995.75;;;11.67;100.00
63808;BME280;49961;43.970;22.868;2024-02-26T00:12:44;100994.19;;;11.66;100.00
63808;BME280;49961;43.970;22.868;2024-02-26T00:13:45;100978.19;;;11.54;100.00
63808;BME280;49961;43.970;22.868;2024-02-26T00:14:45;100996.72;;;11.60;100.00
63808;BME280;49961;43.970;22.868;2024-02-26T00:15:47;101000.41;;;11.54;100.00
63808;BME280;49961;43.970;22.868;2024-02-26T00:16:47;101000.06;;;11.52;100.00
63808;BME280;49961;43.970;22.868;2024-02-26T00:17:48;100996.91;;;11.50;100.00
63808;BME280;49961;43.970;22.868;2024-02-26T00:18:48;100998.28;;;11.42;100.00
63808;BME280;49961;43.970;22.868;2024-02-26T00:19:49;100998.97;;;11.46;100.00
63808;BME280;49961;43.970;22.868;2024-02-26T00:20:49;100931.75;;;11.03;100.00
63808;BME280;49961;43.970;22.868;2024-02-26T00:21:50;100992.56;;;11.49;100.00
63808;BME280;49961;43.970;22.868;2024-02-26T00:22:50;100984.34;;;11.45;100.00
63808;BME280;49961;43.970;22.868;2024-02-26T00:23:53;100992.66;;;11.45;100.00
63808;BME280;49961;43.970;22.868;2024-02-26T00:24:53;100949.66;;;11.18;100.00
63808;BME280;49961;43.970;22.868;2024-02-26T00:25:54;100995.84;;;11.44;100.00
63808;BME280;49961;43.970;22.868;2024-02-26T00:26:54;100990.31;;;11.44;100.00
63808;BME280;49961;43.970;22.868;2024-02-26T00:27:54;100995.84;;;11.44;100.00
63808;BME280;49961;43.970;22.868;2024-02-26T00:28:55;100993.88;;;11.44;100.00
63808;BME280;49961;43.970;22.868;2024-02-26T00:29:55;100995.06;;;11.43;100.00
63808;BME280;49961;43.970;22.868;2024-02-26T00:30:56;100993.94;;;11.41;100.00
63808;BME280;49961;43.970;22.868;2024-02-26T00:31:57;100983.28;;;11.39;100.00
63808;BME280;49961;43.970;22.868;2024-02-26T00:32:57;100988.19;;;11.32;100.00
63808;BME280;49961;43.970;22.868;2024-02-26T00:33:58;100983.91;;;11.27;100.00
63808;BME280;49961;43.970;22.868;2024-02-26T00:34:59;100983.91;;;11.27;100.00
63808;BME280;49961;43.970;22.868;2024-02-26T00:36:00;100980.72;;;11.29;100.00
63808;BME280;49961;43.970;22.868;2024-02-26T00:37:01;100981.94;;;11.28;100.00
63808;BME280;49961;43.970;22.868;2024-02-26T00:38:02;100983.56;;;11.25;100.00
63808;BME280;49961;43.970;22.868;2024-02-26T00:39:03;100986.44;;;11.22;100.00
63808;BME280;49961;43.970;22.868;2024-02-26T00:40:04;100978.22;;;11.15;100.00
63808;BME280;49961;43.970;22.868;2024-02-26T00:41:05;100993.16;;;11.21;100.00
63808;BME280;49961;43.970;22.868;2024-02-26T00:42:05;100993.47;;;11.07;100.00
63808;BME280;49961;43.970;22.868;2024-02-26T00:43:06;100978.25;;;10.95;100.00
63808;BME280;49961;43.970;22.868;2024-02-26T00:44:07;100985.50;;;10.89;100.00
63808;BME280;49961;43.970;22.868;2024-02-26T00:45:08;100984.44;;;10.83;100.00
63808;BME280;49961;43.970;22.868;2024-02-26T00:46:08;100983.31;;;10.77;100.00
63808;BME280;49961;43.970;22.868;2024-02-26T00:47:09;100980.06;;;10.82;100.00
63808;BME280;49961;43.970;22.868;2024-02-26T00:48:09;100983.72;;;10.79;100.00
63808;BME280;49961;43.970;22.868;2024-02-26T00:49:10;100967.50;;;10.78;100.00
63808;BME280;49961;43.970;22.868;2024-02-26T00:50:10;100971.91;;;10.75;100.00
63808;BME280;49961;43.970;22.868;2024-02-26T00:51:11;100957.47;;;10.64;100.00
63808;BME280;49961;43.970;22.868;2024-02-26T00:52:11;100972.47;;;10.67;100.00
63808;BME280;49961;43.970;22.868;2024-02-26T00:53:12;100968.13;;;10.66;100.00
63808;BME280;49961;43.970;22.868;2024-02-26T00:54:12;100943.13;;;10.46;100.00
63808;BME280;49961;43.970;22.868;2024-02-26T00:55:13;100972.16;;;10.61;100.00
63808;BME280;49961;43.970;22.868;2024-02-26T00:56:14;100971.72;;;10.63;100.00
63808;BME280;49961;43.970;22.868;2024-02-26T00:57:15;100968.31;;;10.55;100.00
63808;BME280;49961;43.970;22.868;2024-02-26T00:58:15;100968.25;;;10.59;100.00
63808;BME280;49961;43.970;22.868;2024-02-26T00:59:16;100969.38;;;10.61;100.00
63808;BME280;49961;43.970;22.868;2024-02-26T01:00:17;100974.16;;;10.61;100.00
63808;BME280;49961;43.970;22.868;2024-02-26T01:01:18;100967.16;;;10.53;100.00
63808;BME280;49961;43.970;22.868;2024-02-26T01:02:18;100979.81;;;10.54;100.00
63808;BME280;49961;43.970;22.868;2024-02-26T01:03:19;100957.13;;;10.39;100.00
63808;BME280;49961;43.970;22.868;2024-02-26T01:04:19;100981.44;;;10.51;100.00
63808;BME280;49961;43.970;22.868;2024-02-26T01:05:20;100980.69;;;10.51;100.00
63808;BME280;49961;43.970;22.868;2024-02-26T01:06:20;100991.75;;;10.51;100.00
63808;BME280;49961;43.970;22.868;2024-02-26T01:07:22;100984.69;;;10.46;100.00
63808;BME280;49961;43.970;22.868;2024-02-26T01:08:23;100982.38;;;10.45;100.00
63808;BME280;49961;43.970;22.868;2024-02-26T01:09:23;100974.22;;;10.34;100.00
63808;BME280;49961;43.970;22.868;2024-02-26T01:10:24;100983.19;;;10.42;100.00
63808;BME280;49961;43.970;22.868;2024-02-26T01:11:24;100965.69;;;10.25;100.00
63808;BME280;49961;43.970;22.868;2024-02-26T01:12:25;100980.59;;;10.31;100.00
63808;BME280;49961;43.970;22.868;2024-02-26T01:13:25;100985.84;;;10.26;100.00
63808;BME280;49961;43.970;22.868;2024-02-26T01:14:26;100988.22;;;10.27;100.00
63808;BME280;49961;43.970;22.868;2024-02-26T01:15:26;100990.13;;;10.30;100.00
63808;BME280;49961;43.970;22.868;2024-02-26T01:16:27;100994.03;;;10.33;100.00
63808;BME280;49961;43.970;22.868;2024-02-26T01:17:29;100990.84;;;10.34;100.00
63808;BME280;49961;43.970;22.868;2024-02-26T01:18:30;100994.78;;;10.37;100.00
63808;BME280;49961;43.970;22.868;2024-02-26T01:19:31;100989.16;;;10.40;100.00
63808;BME280;49961;43.970;22.868;2024-02-26T01:20:31;100987.28;;;10.34;100.00
63808;BME280;49961;43.970;22.868;2024-02-26T01:21:32;100977.91;;;10.28;100.00
63808;BME280;49961;43.970;22.868;2024-02-26T01:22:32;100983.69;;;10.37;100.00
63808;BME280;49961;43.970;22.868;2024-02-26T01:23:33;100981.22;;;10.42;100.00
63808;BME280;49961;43.970;22.868;2024-02-26T01:24:33;100972.53;;;10.40;100.00
63808;BME280;49961;43.970;22.868;2024-02-26T01:25:34;100950.34;;;10.21;100.00
63808;BME280;49961;43.970;22.868;2024-02-26T01:26:34;100974.97;;;10.38;100.00
63808;BME280;49961;43.970;22.868;2024-02-26T01:27:36;100968.63;;;10.38;100.00
63808;BME280;49961;43.970;22.868;2024-02-26T01:28:36;100845.38;;;9.57;100.00
63808;BME280;49961;43.970;22.868;2024-02-26T01:29:37;100970.91;;;10.43;100.00
63808;BME280;49961;43.970;22.868;2024-02-26T01:30:37;100968.06;;;10.46;100.00
63808;BME280;49961;43.970;22.868;2024-02-26T01:31:38;100968.06;;;10.46;100.00
63808;BME280;49961;43.970;22.868;2024-02-26T01:32:38;100958.28;;;10.42;100.00
63808;BME280;49961;43.970;22.868;2024-02-26T01:33:39;100970.44;;;10.48;100.00
63808;BME280;49961;43.970;22.868;2024-02-26T01:34:39;100964.94;;;10.44;100.00
63808;BME280;49961;43.970;22.868;2024-02-26T01:35:40;100971.28;;;10.45;100.00
63808;BME280;49961;43.970;22.868;2024-02-26T01:36:40;100964.53;;;10.46;100.00
63808;BME280;49961;43.970;22.868;2024-02-26T01:37:42;100924.75;;;10.13;100.00
63808;BME280;49961;43.970;22.868;2024-02-26T01:38:42;100968.13;;;10.43;100.00
63808;BME280;49961;43.970;22.868;2024-02-26T01:39:43;100970.44;;;10.48;100.00
63808;BME280;49961;43.970;22.868;2024-02-26T01:40:43;100965.84;;;10.38;100.00
63808;BME280;49961;43.970;22.868;2024-02-26T01:41:44;100803.44;;;9.36;100.00
63808;BME280;49961;43.970;22.868;2024-02-26T01:42:44;100960.25;;;10.41;100.00
63808;BME280;49961;43.970;22.868;2024-02-26T01:43:45;100973.34;;;10.41;100.00
63808;BME280;49961;43.970;22.868;2024-02-26T01:44:45;100961.94;;;10.35;100.00
63808;BME280;49961;43.970;22.868;2024-02-26T01:45:46;100965.78;;;10.41;100.00
63808;BME280;49961;43.970;22.868;2024-02-26T01:46:48;100911.84;;;10.03;100.00
63808;BME280;49961;43.970;22.868;2024-02-26T01:47:50;100967.00;;;10.40;100.00
63808;BME280;49961;43.970;22.868;2024-02-26T01:48:51;100969.75;;;10.40;100.00
63808;BME280;49961;43.970;22.868;2024-02-26T01:49:52;100972.25;;;10.35;100.00
63808;BME280;49961;43.970;22.868;2024-02-26T01:50:52;100967.91;;;10.34;100.00
63808;BME280;49961;43.970;22.868;2024-02-26T01:51:53;100969.09;;;10.33;100.00
63808;BME280;49961;43.970;22.868;2024-02-26T01:52:55;100954.66;;;10.22;100.00
63808;BME280;49961;43.970;22.868;2024-02-26T01:53:56;100954.72;;;10.18;100.00
63808;BME280;49961;43.970;22.868;2024-02-26T01:54:58;100964.34;;;10.33;100.00
63808;BME280;49961;43.970;22.868;2024-02-26T01:56:01;100967.97;;;10.30;100.00
63808;BME280;49961;43.970;22.868;2024-02-26T01:57:03;100846.34;;;9.47;100.00
63808;BME280;49961;43.970;22.868;2024-02-26T01:58:05;100969.59;;;10.28;100.00
63808;BME280;49961;43.970;22.868;2024-02-26T01:59:06;100970.88;;;10.23;100.00
63808;BME280;49961;43.970;22.868;2024-02-26T02:00:09;100973.22;;;10.25;100.00
63808;BME280;49961;43.970;22.868;2024-02-26T02:01:10;100973.63;;;10.23;100.00
63808;BME280;49961;43.970;22.868;2024-02-26T02:02:12;100974.44;;;10.24;100.00
63808;BME280;49961;43.970;22.868;2024-02-26T02:03:14;100976.81;;;10.22;100.00
63808;BME280;49961;43.970;22.868;2024-02-26T02:04:15;100969.47;;;10.12;100.00
63808;BME280;49961;43.970;22.868;2024-02-26T02:05:16;100974.25;;;10.11;100.00
63808;BME280;49961;43.970;22.868;2024-02-26T02:06:20;100979.31;;;10.16;100.00
63808;BME280;49961;43.970;22.868;2024-02-26T02:07:21;100985.31;;;10.11;100.00
63808;BME280;49961;43.970;22.868;2024-02-26T02:08:23;100982.56;;;10.11;100.00
63808;BME280;49961;43.970;22.868;2024-02-26T02:09:24;100977.78;;;10.12;100.00
63808;BME280;49961;43.970;22.868;2024-02-26T02:10:26;100848.16;;;9.31;100.00
63808;BME280;49961;43.970;22.868;2024-02-26T02:11:27;100980.94;;;10.14;100.00
63808;BME280;49961;43.970;22.868;2024-02-26T02:12:27;100963.66;;;10.06;100.00
63808;BME280;49961;43.970;22.868;2024-02-26T02:13:28;100977.78;;;10.12;100.00
63808;BME280;49961;43.970;22.868;2024-02-26T02:14:28;100800.47;;;9.00;100.00
63808;BME280;49961;43.970;22.868;2024-02-26T02:15:29;100971.34;;;10.18;100.00
63808;BME280;49961;43.970;22.868;2024-02-26T02:16:29;100969.41;;;10.15;100.00
63808;BME280;49961;43.970;22.868;2024-02-26T02:17:31;100970.13;;;10.19;100.00
63808;BME280;49961;43.970;22.868;2024-02-26T02:18:31;100965.75;;;10.22;100.00
63808;BME280;49961;43.970;22.868;2024-02-26T02:19:32;100964.53;;;10.23;100.00
63808;BME280;49961;43.970;22.868;2024-02-26T02:20:33;100954.38;;;10.16;100.00
63808;BME280;49961;43.970;22.868;2024-02-26T02:21:34;100970.38;;;10.28;100.00
63808;BME280;49961;43.970;22.868;2024-02-26T02:22:34;100962.16;;;10.25;100.00
63808;BME280;49961;43.970;22.868;2024-02-26T02:23:35;100978.28;;;10.30;100.00
63808;BME280;49961;43.970;22.868;2024-02-26T02:24:35;100971.53;;;10.31;100.00
63808;BME280;49961;43.970;22.868;2024-02-26T02:25:36;100978.63;;;10.32;100.00
63808;BME280;49961;43.970;22.868;2024-02-26T02:26:37;100983.75;;;10.33;100.00
63808;BME280;49961;43.970;22.868;2024-02-26T02:27:38;100981.72;;;10.37;100.00
63808;BME280;49961;43.970;22.868;2024-02-26T02:28:39;100980.91;;;10.37;100.00
63808;BME280;49961;43.970;22.868;2024-02-26T02:29:40;100876.75;;;9.74;100.00
63808;BME280;49961;43.970;22.868;2024-02-26T02:30:41;100978.06;;;10.40;100.00
63808;BME280;49961;43.970;22.868;2024-02-26T02:31:42;100903.56;;;9.77;100.00
63808;BME280;49961;43.970;22.868;2024-02-26T02:32:43;100983.19;;;10.42;100.00
63808;BME280;49961;43.970;22.868;2024-02-26T02:33:44;100976.03;;;10.44;100.00
63808;BME280;49961;43.970;22.868;2024-02-26T02:34:45;100925.53;;;10.14;100.00
63808;BME280;49961;43.970;22.868;2024-02-26T02:35:45;100972.47;;;10.44;100.00
63808;BME280;49961;43.970;22.868;2024-02-26T02:36:51;100923.28;;;10.05;100.00
63808;BME280;49961;43.970;22.868;2024-02-26T02:37:53;100923.94;;;10.13;100.00
63808;BME280;49961;43.970;22.868;2024-02-26T02:38:53;100918.19;;;10.00;100.00
63808;BME280;49961;43.970;22.868;2024-02-26T02:39:54;100977.31;;;10.40;100.00
63808;BME280;49961;43.970;22.868;2024-02-26T02:40:55;100977.31;;;10.40;100.00
63808;BME280;49961;43.970;22.868;2024-02-26T02:41:56;100971.41;;;10.38;100.00
63808;BME280;49961;43.970;22.868;2024-02-26T02:42:56;100976.16;;;10.37;100.00
63808;BME280;49961;43.970;22.868;2024-02-26T02:43:57;100973.50;;;10.30;100.00
63808;BME280;49961;43.970;22.868;2024-02-26T02:44:57;100969.84;;;10.37;100.00
63808;BME280;49961;43.970;22.868;2024-02-26T02:45:58;100976.59;;;10.36;100.00
63808;BME280;49961;43.970;22.868;2024-02-26T02:46:58;100974.97;;;10.38;100.00
63808;BME280;49961;43.970;22.868;2024-02-26T02:47:59;100974.16;;;10.38;100.00
63808;BME280;49961;43.970;22.868;2024-02-26T02:48:59;100866.16;;;9.69;100.00
63808;BME280;49961;43.970;22.868;2024-02-26T02:50:00;100975.38;;;10.37;100.00
63808;BME280;49961;43.970;22.868;2024-02-26T02:51:00;100971.88;;;10.33;100.00
63808;BME280;49961;43.970;22.868;2024-02-26T02:52:01;100968.81;;;10.27;100.00
63808;BME280;49961;43.970;22.868;2024-02-26T02:53:02;100971.28;;;10.22;100.00
63808;BME280;49961;43.970;22.868;2024-02-26T02:54:02;100880.09;;;9.62;100.00
63808;BME280;49961;43.970;22.868;2024-02-26T02:55:03;100972.50;;;10.21;100.00
63808;BME280;49961;43.970;22.868;2024-02-26T02:56:04;100973.69;;;10.20;100.00
63808;BME280;49961;43.970;22.868;2024-02-26T02:57:05;100983.91;;;10.23;100.00
63808;BME280;49961;43.970;22.868;2024-02-26T02:58:05;100975.25;;;10.21;100.00
63808;BME280;49961;43.970;22.868;2024-02-26T02:59:06;100871.19;;;9.51;100.00
63808;BME280;49961;43.970;22.868;2024-02-26T03:00:11;100974.91;;;10.19;100.00
63808;BME280;49961;43.970;22.868;2024-02-26T03:01:13;100980.06;;;10.17;100.00
63808;BME280;49961;43.970;22.868;2024-02-26T03:02:13;100852.88;;;9.34;100.00
63808;BME280;49961;43.970;22.868;2024-02-26T03:03:14;100973.13;;;10.05;100.00
63808;BME280;49961;43.970;22.868;2024-02-26T03:04:14;100872.97;;;9.38;100.00
63808;BME280;49961;43.970;22.868;2024-02-26T03:05:15;100901.56;;;9.54;100.00
63808;BME280;49961;43.970;22.868;2024-02-26T03:06:16;100991.28;;;10.10;100.00
63808;BME280;49961;43.970;22.868;2024-02-26T03:07:16;100997.63;;;10.07;100.00
63808;BME280;49961;43.970;22.868;2024-02-26T03:08:17;100989.72;;;10.09;100.00
63808;BME280;49961;43.970;22.868;2024-02-26T03:09:19;100985.50;;;9.97;100.00
63808;BME280;49961;43.970;22.868;2024-02-26T03:10:19;101002.75;;;10.08;100.00
63808;BME280;49961;43.970;22.868;2024-02-26T03:11:20;100997.63;;;10.07;100.00
63808;BME280;49961;43.970;22.868;2024-02-26T03:12:21;101006.75;;;10.07;100.00
63808;BME280;49961;43.970;22.868;2024-02-26T03:13:21;100992.09;;;10.07;100.00
63808;BME280;49961;43.970;22.868;2024-02-26T03:14:22;100991.34;;;10.03;100.00
63808;BME280;49961;43.970;22.868;2024-02-26T03:15:22;101003.09;;;10.14;100.00
63808;BME280;49961;43.970;22.868;2024-02-26T03:16:23;100995.97;;;10.13;100.00
63808;BME280;49961;43.970;22.868;2024-02-26T03:17:23;100981.41;;;10.09;100.00
63808;BME280;49961;43.970;22.868;2024-02-26T03:18:24;100994.50;;;10.05;100.00
63808;BME280;49961;43.970;22.868;2024-02-26T03:19:25;100977.13;;;10.01;100.00
63808;BME280;49961;43.970;22.868;2024-02-26T03:20:25;100993.25;;;10.09;100.00
63808;BME280;49961;43.970;22.868;2024-02-26T03:21:27;101011.47;;;10.07;100.00
63808;BME280;49961;43.970;22.868;2024-02-26T03:22:27;101000.06;;;10.05;100.00
63808;BME280;49961;43.970;22.868;2024-02-26T03:23:27;100993.34;;;10.02;100.00
63808;BME280;49961;43.970;22.868;2024-02-26T03:24:30;100978.16;;;9.87;100.00
63808;BME280;49961;43.970;22.868;2024-02-26T03:25:30;100993.88;;;9.94;100.00
63808;BME280;49961;43.970;22.868;2024-02-26T03:26:31;100990.78;;;9.88;100.00
63808;BME280;49961;43.970;22.868;2024-02-26T03:27:31;100930.53;;;9.46;100.00
63808;BME280;49961;43.970;22.868;2024-02-26T03:28:32;100996.91;;;9.76;100.00
63808;BME280;49961;43.970;22.868;2024-02-26T03:29:33;100988.28;;;9.71;100.00
63808;BME280;49961;43.970;22.868;2024-02-26T03:30:34;100989.47;;;9.70;100.00
63808;BME280;49961;43.970;22.868;2024-02-26T03:31:34;100982.84;;;9.64;100.00
63808;BME280;49961;43.970;22.868;2024-02-26T03:32:35;100978.88;;;9.65;100.00
63808;BME280;49961;43.970;22.868;2024-02-26T03:33:36;100968.34;;;9.56;100.00
63808;BME280;49961;43.970;22.868;2024-02-26T03:34:36;100981.25;;;9.66;100.00
63808;BME280;49961;43.970;22.868;2024-02-26T03:35:39;100979.28;;;9.63;100.00
63808;BME280;49961;43.970;22.868;2024-02-26T03:36:40;100969.63;;;9.48;100.00
63808;BME280;49961;43.970;22.868;2024-02-26T03:37:41;100978.59;;;9.56;100.00
63808;BME280;49961;43.970;22.868;2024-02-26T03:38:42;100872.97;;;8.81;100.00
63808;BME280;49961;43.970;22.868;2024-02-26T03:39:44;100978.72;;;9.49;100.00
63808;BME280;49961;43.970;22.868;2024-02-26T03:40:44;100979.19;;;9.44;100.00
63808;BME280;49961;43.970;22.868;2024-02-26T03:41:45;100968.63;;;9.35;100.00
63808;BME280;49961;43.970;22.868;2024-02-26T03:42:45;100964.31;;;9.31;100.00
63808;BME280;49961;43.970;22.868;2024-02-26T03:43:46;100984.38;;;9.38;100.00
63808;BME280;49961;43.970;22.868;2024-02-26T03:44:47;100979.31;;;9.33;100.00
63808;BME280;49961;43.970;22.868;2024-02-26T03:45:47;100986.44;;;9.31;100.00
63808;BME280;49961;43.970;22.868;2024-02-26T03:46:48;100974.69;;;9.27;100.00
63808;BME280;49961;43.970;22.868;2024-02-26T03:47:48;100988.44;;;9.30;100.00
63808;BME280;49961;43.970;22.868;2024-02-26T03:48:49;100979.00;;;9.28;100.00
63808;BME280;49961;43.970;22.868;2024-02-26T03:49:49;100991.97;;;9.34;100.00
63808;BME280;49961;43.970;22.868;2024-02-26T03:50:50;100989.97;;;9.35;100.00
63808;BME280;49961;43.970;22.868;2024-02-26T03:51:50;100996.66;;;9.37;100.00
63808;BME280;49961;43.970;22.868;2024-02-26T03:52:51;100991.16;;;9.34;100.00
63808;BME280;49961;43.970;22.868;2024-02-26T03:53:51;100993.47;;;9.39;100.00
63808;BME280;49961;43.970;22.868;2024-02-26T03:54:52;100996.59;;;9.41;100.00
63808;BME280;49961;43.970;22.868;2024-02-26T03:55:53;100997.34;;;9.45;100.00
63808;BME280;49961;43.970;22.868;2024-02-26T03:56:55;100995.31;;;9.49;100.00
63808;BME280;49961;43.970;22.868;2024-02-26T03:57:56;101005.59;;;9.48;100.00
63808;BME280;49961;43.970;22.868;2024-02-26T03:58:56;101002.41;;;9.50;100.00
63808;BME280;49961;43.970;22.868;2024-02-26T03:59:57;100854.44;;;8.48;100.00
63808;BME280;49961;43.970;22.868;2024-02-26T04:00:58;101010.34;;;9.48;100.00
63808;BME280;49961;43.970;22.868;2024-02-26T04:01:59;100980.50;;;9.32;100.00
63808;BME280;49961;43.970;22.868;2024-02-26T04:03:02;101003.97;;;9.51;100.00
63808;BME280;49961;43.970;22.868;2024-02-26T04:04:02;100999.97;;;9.55;100.00
63808;BME280;49961;43.970;22.868;2024-02-26T04:05:03;101005.81;;;9.61;100.00
63808;BME280;49961;43.970;22.868;2024-02-26T04:06:04;101005.41;;;9.62;100.00
63808;BME280;49961;43.970;22.868;2024-02-26T04:07:05;101004.19;;;9.63;100.00
63808;BME280;49961;43.970;22.868;2024-02-26T04:08:06;101005.75;;;9.64;100.00
63808;BME280;49961;43.970;22.868;2024-02-26T04:09:07;101015.22;;;9.67;100.00
63808;BME280;49961;43.970;22.868;2024-02-26T04:10:11;101012.03;;;9.68;100.00
63808;BME280;49961;43.970;22.868;2024-02-26T04:11:12;100896.06;;;8.98;100.00
63808;BME280;49961;43.970;22.868;2024-02-26T04:12:13;100999.13;;;9.58;100.00
63808;BME280;49961;43.970;22.868;2024-02-26T04:13:14;100858.91;;;8.69;100.00
63808;BME280;49961;43.970;22.868;2024-02-26T04:14:15;100999.44;;;9.64;100.00
63808;BME280;49961;43.970;22.868;2024-02-26T04:15:15;100999.06;;;9.62;100.00
63808;BME280;49961;43.970;22.868;2024-02-26T04:16:16;100883.19;;;8.84;100.00
63808;BME280;49961;43.970;22.868;2024-02-26T04:17:16;101006.50;;;9.68;100.00
63808;BME280;49961;43.970;22.868;2024-02-26T04:18:17;101008.13;;;9.66;100.00
63808;BME280;49961;43.970;22.868;2024-02-26T04:19:18;100999.88;;;9.62;100.00
63808;BME280;49961;43.970;22.868;2024-02-26T04:20:18;101007.69;;;9.67;100.00
63808;BME280;49961;43.970;22.868;2024-02-26T04:21:19;101006.97;;;9.63;100.00
63808;BME280;49961;43.970;22.868;2024-02-26T04:22:19;101000.66;;;9.63;100.00
63808;BME280;49961;43.970;22.868;2024-02-26T04:23:20;101005.88;;;9.57;100.00
63808;BME280;49961;43.970;22.868;2024-02-26T04:24:20;101009.44;;;9.58;100.00
63808;BME280;49961;43.970;22.868;2024-02-26T04:25:21;101014.97;;;9.58;100.00
63808;BME280;49961;43.970;22.868;2024-02-26T04:26:21;100998.81;;;9.53;100.00
63808;BME280;49961;43.970;22.868;2024-02-26T04:27:22;100994.06;;;9.53;100.00
63808;BME280;49961;43.970;22.868;2024-02-26T04:28:22;100998.03;;;9.52;100.00
63808;BME280;49961;43.970;22.868;2024-02-26T04:29:26;101013.69;;;9.62;100.00
63808;BME280;49961;43.970;22.868;2024-02-26T04:30:26;101014.13;;;9.61;100.00
63808;BME280;49961;43.970;22.868;2024-02-26T04:31:27;100989.78;;;9.49;100.00
63808;BME280;49961;43.970;22.868;2024-02-26T04:32:28;101016.41;;;9.66;100.00
63808;BME280;49961;43.970;22.868;2024-02-26T04:33:28;101023.50;;;9.67;100.00
63808;BME280;49961;43.970;22.868;2024-02-26T04:34:29;100988.97;;;9.48;100.00
63808;BME280;49961;43.970;22.868;2024-02-26T04:35:29;101017.22;;;9.66;100.00
63808;BME280;49961;43.970;22.868;2024-02-26T04:36:30;101005.28;;;9.69;100.00
63808;BME280;49961;43.970;22.868;2024-02-26T04:37:30;100893.34;;;8.94;100.00
63808;BME280;49961;43.970;22.868;2024-02-26T04:38:32;101017.22;;;9.66;100.00
63808;BME280;49961;43.970;22.868;2024-02-26T04:39:32;101001.94;;;9.55;100.00
63808;BME280;49961;43.970;22.868;2024-02-26T04:40:32;101014.50;;;9.63;100.00
63808;BME280;49961;43.970;22.868;2024-02-26T04:41:33;101010.94;;;9.62;100.00
63808;BME280;49961;43.970;22.868;2024-02-26T04:42:33;101011.03;;;9.55;100.00
63808;BME280;49961;43.970;22.868;2024-02-26T04:43:35;101022.34;;;9.64;100.00
63808;BME280;49961;43.970;22.868;2024-02-26T04:44:41;101018.78;;;9.67;100.00
63808;BME280;49961;43.970;22.868;2024-02-26T04:45:42;101031.50;;;9.61;100.00
63808;BME280;49961;43.970;22.868;2024-02-26T04:46:42;101018.91;;;9.57;100.00
63808;BME280;49961;43.970;22.868;2024-02-26T04:47:42;101023.34;;;9.51;100.00
63808;BME280;49961;43.970;22.868;2024-02-26T04:48:43;101005.31;;;9.39;100.00
63808;BME280;49961;43.970;22.868;2024-02-26T04:49:45;101022.56;;;9.50;100.00
63808;BME280;49961;43.970;22.868;2024-02-26T04:50:46;101024.13;;;9.51;100.00
63808;BME280;49961;43.970;22.868;2024-02-26T04:51:46;100968.63;;;9.05;100.00
63808;BME280;49961;43.970;22.868;2024-02-26T04:52:48;101034.88;;;9.46;100.00
63808;BME280;49961;43.970;22.868;2024-02-26T04:53:49;101032.47;;;9.48;100.00
63808;BME280;49961;43.970;22.868;2024-02-26T04:54:50;101033.66;;;9.47;100.00
63808;BME280;49961;43.970;22.868;2024-02-26T04:55:50;101031.34;;;9.45;100.00
63808;BME280;49961;43.970;22.868;2024-02-26T04:56:51;101036.41;;;9.50;100.00
63808;BME280;49961;43.970;22.868;2024-02-26T04:57:51;101017.81;;;9.51;100.00
63808;BME280;49961;43.970;22.868;2024-02-26T04:58:52;101030.72;;;9.61;100.00
63808;BME280;49961;43.970;22.868;2024-02-26T04:59:52;101040.97;;;9.64;100.00
63808;BME280;49961;43.970;22.868;2024-02-26T05:00:53;101042.94;;;9.63;100.00
63808;BME280;49961;43.970;22.868;2024-02-26T05:01:53;101043.34;;;9.62;100.00
63808;BME280;49961;43.970;22.868;2024-02-26T05:02:54;100950.47;;;9.04;100.00
63808;BME280;49961;43.970;22.868;2024-02-26T05:03:54;101038.56;;;9.66;100.00
63808;BME280;49961;43.970;22.868;2024-02-26T05:04:55;101030.34;;;9.59;100.00
63808;BME280;49961;43.970;22.868;2024-02-26T05:05:55;101038.56;;;9.66;100.00
63808;BME280;49961;43.970;22.868;2024-02-26T05:06:58;101026.72;;;9.65;100.00
63808;BME280;49961;43.970;22.868;2024-02-26T05:07:58;101033.81;;;9.66;100.00
63808;BME280;49961;43.970;22.868;2024-02-26T05:08:59;101035.03;;;9.65;100.00
63808;BME280;49961;43.970;22.868;2024-02-26T05:09:59;101035.78;;;9.66;100.00
63808;BME280;49961;43.970;22.868;2024-02-26T05:11:00;101046.03;;;9.69;100.00